Hauptseite
METAR-TAF:

METAR-TAF

Flughäfen :

Scampton, England

RAF Scampton

Breite: 53-18-27N, Länge: 000-33-03W, Höhe: 62 m

Beobachtung

Neuester Wetterbericht von vor 33 Minuten, um 10:50 UTC
Wind 21 kt aus Südwest
Temperatur 8°C
Luftfeuchtigkeit 71%
Luftdruck 992 hPa
Sichtweite 10 km oder mehr
keine Wolken unter 1500 m und keine Kumulonimbus oder Gewitterwolken

METAR: EGXP 231050Z 22021KT CAVOK 08/03 Q0992 BLU

Zeit: 11:23 (11:23 UTC)

Prognose

Neuester Wetterbericht von vor 3 Stunden und 43 Minuten, um 07:40 UTC
Gültige Prognose vom 23 um 09 UTC bis 23 um 18 UTC
Wind 15 kt aus West/Südwest, Böen bis zu 25 kt
Sichtweite 10 km oder mehr
Durchbrochene Bewölkung in der Höhe von 3000 ft
Übergehend zu
vom 23 um 09 UTC bis 23 um 11 UTC
Wind 22 kt aus West/Südwest, Böen bis zu 35 kt

TAF: EGXP 230740Z 2309/2318 25015G25KT 9999 BKN030 BECMG 2309/2311 24022G35KT

Wetterbeobachtungen und Prognosen von mehr als 4000 Flughäfen (METAR und TAF Bericht).

Die verfügbaren Stationen werden durch gelbe und rote Markierungen auf der Karte dargestellt.

Führen Sie die Maus auf sie, um den Namen der Station zu sehen.

Darauf klicken, um die Beobachtung von Wetterbeobachtungen und Prognosen zu sehen.

Um die Karte zu ändern : klicken Sie auf den grünen Tasten mit einem schwarzen Kreuz Zum Vergrößern, auf den grünen Button mit einem Gedankenstrich zu verkleinern, oder auf die grünen Pfeile für benachbarte Karten.


METAR-TAF: